createdAt,value
2023-05-02T00:00:08.481Z,94712.00
2023-05-02T00:01:08.490Z,94712.00
2023-05-02T00:02:08.528Z,94712.00
2023-05-02T00:03:08.540Z,94714.00
2023-05-02T00:04:08.613Z,94716.00
2023-05-02T00:05:08.508Z,94716.00
2023-05-02T00:06:08.581Z,94716.00
2023-05-02T00:07:08.559Z,94716.00
2023-05-02T00:08:08.604Z,94716.00
2023-05-02T00:09:08.635Z,94716.00
2023-05-02T00:10:08.658Z,94714.00
2023-05-02T00:11:08.682Z,94710.00
2023-05-02T00:12:08.725Z,94714.00
2023-05-02T00:13:08.753Z,94714.00
2023-05-02T00:14:08.796Z,94712.00
2023-05-02T00:15:08.795Z,94710.00
2023-05-02T00:16:08.830Z,94712.00
2023-05-02T00:17:08.853Z,94712.00
2023-05-02T00:18:08.912Z,94712.00
2023-05-02T00:19:08.896Z,94708.00
2023-05-02T00:20:09.054Z,94712.00
2023-05-02T00:21:08.975Z,94710.00
2023-05-02T00:22:08.996Z,94712.00
2023-05-02T00:23:09.048Z,94712.00
2023-05-02T00:24:09.097Z,94712.00
2023-05-02T00:25:09.137Z,94712.00
2023-05-02T00:26:09.174Z,94710.00
2023-05-02T00:27:09.244Z,94712.00
2023-05-02T00:28:09.270Z,94714.00
2023-05-02T00:29:09.329Z,94710.00
2023-05-02T00:30:09.361Z,94712.00
2023-05-02T00:31:09.437Z,94710.00
2023-05-02T00:32:09.430Z,94710.00
2023-05-02T00:33:09.522Z,94707.00
2023-05-02T00:34:09.516Z,94710.00
2023-05-02T00:35:09.530Z,94710.00
2023-05-02T00:36:09.565Z,94708.00
2023-05-02T00:37:09.588Z,94708.00
2023-05-02T00:38:09.625Z,94707.00
2023-05-02T00:39:09.695Z,94708.00
2023-05-02T00:40:09.702Z,94708.00
2023-05-02T00:41:09.721Z,94708.00
2023-05-02T00:42:09.763Z,94705.00
2023-05-02T00:43:09.814Z,94707.00
2023-05-02T00:44:09.869Z,94705.00
2023-05-02T00:45:09.882Z,94703.00
2023-05-02T00:46:09.960Z,94703.00
2023-05-02T00:47:09.975Z,94703.00
2023-05-02T00:48:10.040Z,94701.00
2023-05-02T00:49:10.068Z,94701.00
2023-05-02T00:50:10.083Z,94701.00
2023-05-02T00:51:10.148Z,94701.00
2023-05-02T00:52:10.176Z,94703.00
2023-05-02T00:53:10.204Z,94703.00
2023-05-02T00:54:10.258Z,94705.00
2023-05-02T00:55:10.281Z,94705.00
2023-05-02T00:56:10.294Z,94703.00
2023-05-02T00:57:10.340Z,94703.00
2023-05-02T00:58:10.376Z,94703.00
2023-05-02T00:59:10.433Z,94705.00
2023-05-02T01:00:10.438Z,94703.00
2023-05-02T01:01:10.526Z,94705.00
2023-05-02T01:02:10.603Z,94707.00
2023-05-02T01:03:10.585Z,94705.00
2023-05-02T01:04:10.747Z,94703.00
2023-05-02T01:05:10.620Z,94703.00
2023-05-02T01:06:10.648Z,94707.00
2023-05-02T01:07:10.696Z,94708.00
2023-05-02T01:08:10.740Z,94708.00
2023-05-02T01:09:10.792Z,94708.00
2023-05-02T01:10:10.813Z,94708.00
2023-05-02T01:11:10.870Z,94710.00
2023-05-02T01:12:10.908Z,94712.00
2023-05-02T01:13:10.959Z,94712.00
2023-05-02T01:14:11.016Z,94712.00
2023-05-02T01:15:11.066Z,94712.00
2023-05-02T01:16:11.135Z,94712.00
2023-05-02T01:17:11.159Z,94714.00
2023-05-02T01:18:11.212Z,94716.00
2023-05-02T01:19:11.221Z,94712.00
2023-05-02T01:20:11.260Z,94714.00
2023-05-02T01:21:11.343Z,94714.00
2023-05-02T01:22:11.358Z,94716.00
2023-05-02T01:23:11.428Z,94714.00
2023-05-02T01:24:11.445Z,94712.00
2023-05-02T01:25:11.517Z,94716.00
2023-05-02T01:26:11.565Z,94712.00
2023-05-02T01:27:11.601Z,94716.00
2023-05-02T01:28:11.637Z,94716.00
2023-05-02T01:29:11.686Z,94718.00
2023-05-02T01:30:11.770Z,94720.00
2023-05-02T01:31:11.841Z,94718.00
2023-05-02T01:32:11.841Z,94722.00
2023-05-02T01:33:11.954Z,94722.00
2023-05-02T01:34:11.984Z,94718.00
2023-05-02T01:35:12.001Z,94718.00
2023-05-02T01:36:12.083Z,94720.00
2023-05-02T01:37:12.101Z,94720.00
2023-05-02T01:38:12.153Z,94720.00
2023-05-02T01:39:12.184Z,94722.00
2023-05-02T01:40:12.249Z,94722.00
2023-05-02T01:41:12.321Z,94722.00
2023-05-02T01:42:12.353Z,94722.00
2023-05-02T01:43:12.417Z,94720.00
2023-05-02T01:44:12.464Z,94720.00
2023-05-02T01:45:12.517Z,94722.00
2023-05-02T01:46:12.624Z,94724.00
2023-05-02T01:47:12.686Z,94722.00
2023-05-02T01:48:12.667Z,94726.00
2023-05-02T01:49:12.706Z,94726.00
2023-05-02T01:50:12.753Z,94726.00
2023-05-02T01:51:12.813Z,94726.00
2023-05-02T01:52:12.832Z,94726.00
2023-05-02T01:53:12.898Z,94728.00
2023-05-02T01:54:12.934Z,94732.00
2023-05-02T01:55:12.996Z,94732.00
2023-05-02T01:56:13.062Z,94734.00
2023-05-02T01:57:13.090Z,94736.00
2023-05-02T01:58:13.170Z,94734.00
2023-05-02T01:59:13.174Z,94738.00
2023-05-02T02:00:13.249Z,94734.00
2023-05-02T02:01:13.397Z,94732.00
2023-05-02T02:02:13.347Z,94732.00
2023-05-02T02:03:13.427Z,94734.00
2023-05-02T02:04:13.506Z,94738.00
2023-05-02T02:05:13.506Z,94736.00
2023-05-02T02:06:13.568Z,94732.00
2023-05-02T02:07:13.575Z,94736.00
2023-05-02T02:08:13.661Z,94734.00
2023-05-02T02:09:13.711Z,94734.00
2023-05-02T02:10:13.749Z,94732.00
2023-05-02T02:11:13.832Z,94736.00
2023-05-02T02:12:13.850Z,94732.00
2023-05-02T02:13:13.892Z,94734.00
2023-05-02T02:14:13.944Z,94734.00
2023-05-02T02:15:13.992Z,94734.00
2023-05-02T02:16:14.136Z,94736.00
2023-05-02T02:17:14.079Z,94732.00
2023-05-02T02:18:14.173Z,94736.00
2023-05-02T02:19:14.180Z,94736.00
2023-05-02T02:20:14.222Z,94734.00
2023-05-02T02:21:14.325Z,94736.00
2023-05-02T02:22:14.342Z,94734.00
2023-05-02T02:23:14.401Z,94736.00
2023-05-02T02:24:14.490Z,94734.00
2023-05-02T02:25:14.520Z,94738.00
2023-05-02T02:26:14.592Z,94736.00
2023-05-02T02:27:14.612Z,94738.00
2023-05-02T02:28:14.672Z,94740.00
2023-05-02T02:29:14.733Z,94738.00
2023-05-02T02:30:14.792Z,94740.00
2023-05-02T02:31:14.872Z,94740.00
2023-05-02T02:32:14.872Z,94742.00
2023-05-02T02:33:15.000Z,94738.00
2023-05-02T02:34:15.027Z,94738.00
2023-05-02T02:35:15.091Z,94738.00
2023-05-02T02:36:15.154Z,94738.00
2023-05-02T02:37:15.191Z,94740.00
2023-05-02T02:38:15.253Z,94740.00
2023-05-02T02:39:15.330Z,94742.00
2023-05-02T02:40:15.341Z,94742.00
2023-05-02T02:41:15.429Z,94744.00
2023-05-02T02:42:15.471Z,94742.00
2023-05-02T02:43:15.519Z,94744.00
2023-05-02T02:44:15.540Z,94748.00
2023-05-02T02:45:15.584Z,94746.00
2023-05-02T02:46:15.715Z,94748.00
2023-05-02T02:47:15.682Z,94750.00
2023-05-02T02:48:16.656Z,94746.00
2023-05-02T02:49:15.856Z,94750.00
2023-05-02T02:50:15.833Z,94750.00
2023-05-02T02:51:15.960Z,94750.00
2023-05-02T02:52:15.903Z,94750.00
2023-05-02T02:53:15.938Z,94754.00
2023-05-02T02:54:25.803Z,94752.00
2023-05-02T02:55:16.976Z,94752.00
2023-05-02T02:56:15.968Z,94752.00
2023-05-02T02:57:15.944Z,94752.00
2023-05-02T02:58:15.947Z,94750.00
2023-05-02T02:59:15.966Z,94754.00
2023-05-02T03:00:15.944Z,94754.00
2023-05-02T03:01:16.016Z,94754.00
2023-05-02T03:02:15.922Z,94752.00
2023-05-02T03:03:15.983Z,94752.00
2023-05-02T03:04:15.956Z,94748.00
2023-05-02T03:05:15.896Z,94750.00
2023-05-02T03:06:15.971Z,94750.00
2023-05-02T03:07:15.897Z,94748.00
2023-05-02T03:08:15.871Z,94752.00
2023-05-02T03:09:15.939Z,94750.00
2023-05-02T03:10:15.852Z,94750.00
2023-05-02T03:11:15.925Z,94752.00
2023-05-02T03:12:15.949Z,94754.00
2023-05-02T03:13:16.020Z,94750.00
2023-05-02T03:14:16.083Z,94755.00
2023-05-02T03:15:16.138Z,94752.00
2023-05-02T03:16:16.242Z,94754.00
2023-05-02T03:17:16.204Z,94755.00
2023-05-02T03:18:16.332Z,94752.00
2023-05-02T03:19:16.344Z,94755.00
2023-05-02T03:20:16.371Z,94754.00
2023-05-02T03:21:16.420Z,94750.00
2023-05-02T03:22:16.470Z,94750.00
2023-05-02T03:23:16.518Z,94752.00
2023-05-02T03:24:18.892Z,94750.00
2023-05-02T03:25:16.551Z,94752.00
2023-05-02T03:26:16.543Z,94750.00
2023-05-02T03:27:16.543Z,94752.00
2023-05-02T03:28:16.554Z,94752.00
2023-05-02T03:29:16.569Z,94750.00
2023-05-02T03:30:16.577Z,94750.00
2023-05-02T03:31:16.544Z,94750.00
2023-05-02T03:32:16.514Z,94750.00
2023-05-02T03:33:16.652Z,94755.00
2023-05-02T03:34:16.515Z,94755.00
2023-05-02T03:35:16.486Z,94755.00
2023-05-02T03:36:16.496Z,94755.00
2023-05-02T03:37:16.480Z,94754.00
2023-05-02T03:38:16.465Z,94757.00
2023-05-02T03:39:16.525Z,94757.00
2023-05-02T03:40:16.504Z,94761.00
2023-05-02T03:41:16.455Z,94759.00
2023-05-02T03:42:16.432Z,94761.00
2023-05-02T03:43:16.429Z,94763.00
2023-05-02T03:44:16.454Z,94765.00
2023-05-02T03:45:16.440Z,94765.00
2023-05-02T03:46:16.444Z,94767.00
2023-05-02T03:47:16.403Z,94769.00
2023-05-02T03:48:16.414Z,94767.00
2023-05-02T03:49:16.416Z,94765.00
2023-05-02T03:50:16.387Z,94763.00
2023-05-02T03:51:16.364Z,94765.00
2023-05-02T03:52:16.395Z,94769.00
2023-05-02T03:53:16.372Z,94765.00
2023-05-02T03:54:16.372Z,94767.00
2023-05-02T03:55:16.355Z,94769.00
2023-05-02T03:56:16.353Z,94767.00
2023-05-02T03:57:16.349Z,94765.00
2023-05-02T03:58:16.337Z,94771.00
2023-05-02T03:59:16.353Z,94773.00
2023-05-02T04:00:16.329Z,94771.00
2023-05-02T04:01:16.314Z,94775.00
2023-05-02T04:02:16.341Z,94779.00
2023-05-02T04:03:16.320Z,94777.00
2023-05-02T04:04:16.596Z,94779.00
2023-05-02T04:05:16.296Z,94779.00
2023-05-02T04:06:16.292Z,94779.00
2023-05-02T04:07:16.295Z,94781.00
2023-05-02T04:08:16.289Z,94783.00
2023-05-02T04:09:16.258Z,94781.00
2023-05-02T04:10:16.365Z,94785.00
2023-05-02T04:11:16.284Z,94783.00
2023-05-02T04:12:16.263Z,94785.00
2023-05-02T04:13:16.237Z,94787.00
2023-05-02T04:14:16.263Z,94787.00
2023-05-02T04:15:16.245Z,94787.00
2023-05-02T04:16:16.257Z,94785.00
2023-05-02T04:17:16.398Z,94787.00
2023-05-02T04:18:16.291Z,94789.00
2023-05-02T04:19:16.238Z,94791.00
2023-05-02T04:20:16.207Z,94789.00
2023-05-02T04:21:16.223Z,94793.00
2023-05-02T04:22:16.274Z,94793.00
2023-05-02T04:23:16.290Z,94795.00
2023-05-02T04:24:16.371Z,94793.00
2023-05-02T04:25:16.365Z,94793.00
2023-05-02T04:26:16.422Z,94795.00
2023-05-02T04:27:16.452Z,94797.00
2023-05-02T04:28:16.482Z,94797.00
2023-05-02T04:29:16.559Z,94799.00
2023-05-02T04:30:16.547Z,94799.00
2023-05-02T04:31:16.563Z,94799.00
2023-05-02T04:32:16.585Z,94801.00
2023-05-02T04:33:16.669Z,94804.00
2023-05-02T04:34:16.686Z,94804.00
2023-05-02T04:35:16.708Z,94806.00
2023-05-02T04:36:16.739Z,94810.00
2023-05-02T04:37:16.780Z,94814.00
2023-05-02T04:38:16.801Z,94814.00
2023-05-02T04:39:16.844Z,94814.00
2023-05-02T04:40:16.866Z,94812.00
2023-05-02T04:41:16.914Z,94816.00
2023-05-02T04:42:16.972Z,94816.00
2023-05-02T04:43:17.000Z,94818.00
2023-05-02T04:44:17.038Z,94818.00
2023-05-02T04:45:17.083Z,94818.00
2023-05-02T04:46:17.147Z,94820.00
2023-05-02T04:47:17.132Z,94824.00
2023-05-02T04:48:17.167Z,94822.00
2023-05-02T04:49:17.231Z,94824.00
2023-05-02T04:50:17.236Z,94826.00
2023-05-02T04:51:17.316Z,94826.00
2023-05-02T04:52:17.276Z,94824.00
2023-05-02T04:53:17.304Z,94822.00
2023-05-02T04:54:17.354Z,94826.00
2023-05-02T04:55:17.382Z,94828.00
2023-05-02T04:56:17.418Z,94830.00
2023-05-02T04:57:17.448Z,94832.00
2023-05-02T04:58:17.488Z,94834.00
2023-05-02T04:59:17.499Z,94830.00
2023-05-02T05:00:17.544Z,94834.00
2023-05-02T05:01:17.607Z,94836.00
2023-05-02T05:02:17.748Z,94836.00
2023-05-02T05:03:17.731Z,94838.00
2023-05-02T05:04:17.696Z,94836.00
2023-05-02T05:05:17.721Z,94838.00
2023-05-02T05:06:17.668Z,94838.00
2023-05-02T05:07:17.717Z,94840.00
2023-05-02T05:08:17.752Z,94840.00
2023-05-02T05:09:17.788Z,94846.00
2023-05-02T05:10:17.793Z,94846.00
2023-05-02T05:11:17.809Z,94849.00
2023-05-02T05:12:17.841Z,94851.00
2023-05-02T05:13:17.866Z,94851.00
2023-05-02T05:14:17.884Z,94853.00
2023-05-02T05:15:17.902Z,94855.00
2023-05-02T05:16:17.961Z,94853.00
2023-05-02T05:17:17.922Z,94853.00
2023-05-02T05:18:17.908Z,94857.00
2023-05-02T05:19:17.902Z,94861.00
2023-05-02T05:20:17.960Z,94859.00
2023-05-02T05:21:17.954Z,94859.00
2023-05-02T05:22:17.997Z,94861.00
2023-05-02T05:23:17.980Z,94863.00
2023-05-02T05:24:17.997Z,94865.00
2023-05-02T05:25:18.070Z,94865.00
2023-05-02T05:26:18.080Z,94867.00
2023-05-02T05:27:18.114Z,94871.00
2023-05-02T05:28:18.156Z,94867.00
2023-05-02T05:29:18.164Z,94873.00
2023-05-02T05:30:18.183Z,94867.00
2023-05-02T05:31:18.217Z,94873.00
2023-05-02T05:32:18.260Z,94873.00
2023-05-02T05:33:18.328Z,94873.00
2023-05-02T05:34:18.297Z,94873.00
2023-05-02T05:35:18.200Z,94875.00
2023-05-02T05:36:18.201Z,94875.00
2023-05-02T05:37:18.234Z,94873.00
2023-05-02T05:38:18.483Z,94877.00
2023-05-02T05:39:18.282Z,94877.00
2023-05-02T05:40:18.240Z,94879.00
2023-05-02T05:41:18.326Z,94879.00
2023-05-02T05:42:18.283Z,94887.00
2023-05-02T05:43:18.266Z,94887.00
2023-05-02T05:44:18.289Z,94891.00
2023-05-02T05:45:18.360Z,94891.00
2023-05-02T05:46:18.319Z,94893.00
2023-05-02T05:47:18.498Z,94891.00
2023-05-02T05:48:18.486Z,94893.00
2023-05-02T05:49:18.551Z,94895.00
2023-05-02T05:50:18.678Z,94893.00
2023-05-02T05:51:18.591Z,94893.00
2023-05-02T05:52:18.769Z,94895.00
2023-05-02T05:53:18.608Z,94897.00
2023-05-02T05:54:18.650Z,94899.00
2023-05-02T05:55:18.601Z,94897.00
2023-05-02T05:56:18.638Z,94897.00
2023-05-02T05:57:18.660Z,94901.00
2023-05-02T05:58:18.647Z,94901.00
2023-05-02T05:59:18.697Z,94902.00
2023-05-02T06:00:18.772Z,94901.00
2023-05-02T06:01:18.776Z,94904.00
2023-05-02T06:02:18.883Z,94904.00
2023-05-02T06:03:18.904Z,94904.00
2023-05-02T06:04:18.922Z,94906.00
2023-05-02T06:05:18.965Z,94910.00
2023-05-02T06:06:18.986Z,94908.00
2023-05-02T06:07:19.038Z,94908.00
2023-05-02T06:08:19.060Z,94908.00
2023-05-02T06:09:19.112Z,94910.00
2023-05-02T06:10:19.131Z,94910.00
2023-05-02T06:11:19.152Z,94910.00
2023-05-02T06:12:19.218Z,94914.00
2023-05-02T06:13:19.201Z,94914.00
2023-05-02T06:14:19.253Z,94914.00
2023-05-02T06:15:19.284Z,94916.00
2023-05-02T06:16:19.325Z,94918.00
2023-05-02T06:17:19.679Z,94920.00
2023-05-02T06:18:19.414Z,94920.00
2023-05-02T06:19:19.445Z,94918.00
2023-05-02T06:20:19.507Z,94920.00
2023-05-02T06:21:19.500Z,94918.00
2023-05-02T06:22:19.571Z,94922.00
2023-05-02T06:23:19.571Z,94922.00
2023-05-02T06:24:19.610Z,94922.00
2023-05-02T06:25:19.616Z,94926.00
2023-05-02T06:26:19.617Z,94926.00
2023-05-02T06:27:19.668Z,94926.00
2023-05-02T06:28:19.678Z,94928.00
2023-05-02T06:29:19.676Z,94930.00
2023-05-02T06:30:19.712Z,94930.00
2023-05-02T06:31:19.784Z,94932.00
2023-05-02T06:32:20.218Z,94930.00
2023-05-02T06:33:19.777Z,94932.00
2023-05-02T06:34:19.810Z,94930.00
2023-05-02T06:35:20.151Z,94934.00
2023-05-02T06:36:19.844Z,94936.00
2023-05-02T06:37:19.861Z,94936.00
2023-05-02T06:38:19.892Z,94940.00
2023-05-02T06:39:19.886Z,94940.00
2023-05-02T06:40:20.172Z,94940.00
2023-05-02T06:41:19.919Z,94942.00
2023-05-02T06:42:19.948Z,94944.00
2023-05-02T06:43:19.985Z,94946.00
2023-05-02T06:44:19.979Z,94946.00
2023-05-02T06:45:19.975Z,94949.00
2023-05-02T06:46:20.030Z,94948.00
2023-05-02T06:47:20.036Z,94949.00
2023-05-02T06:48:20.258Z,94949.00
2023-05-02T06:49:20.040Z,94948.00
2023-05-02T06:50:20.049Z,94951.00
2023-05-02T06:51:20.052Z,94951.00
2023-05-02T06:52:20.122Z,94951.00
2023-05-02T06:53:20.089Z,94953.00
2023-05-02T06:54:20.109Z,94951.00
2023-05-02T06:55:20.178Z,94951.00
2023-05-02T06:56:20.132Z,94949.00
2023-05-02T06:57:20.130Z,94951.00
2023-05-02T06:58:20.131Z,94949.00
2023-05-02T06:59:20.170Z,94949.00
2023-05-02T07:00:20.166Z,94957.00
2023-05-02T07:01:20.170Z,94957.00
2023-05-02T07:02:20.150Z,94957.00
2023-05-02T07:03:20.166Z,94959.00
2023-05-02T07:04:20.247Z,94959.00
2023-05-02T07:05:20.170Z,94961.00
2023-05-02T07:06:20.202Z,94963.00
2023-05-02T07:07:20.167Z,94963.00
2023-05-02T07:08:20.187Z,94961.00
2023-05-02T07:09:20.168Z,94961.00
2023-05-02T07:10:20.189Z,94961.00
2023-05-02T07:11:20.195Z,94959.00
2023-05-02T07:12:20.203Z,94965.00
2023-05-02T07:13:20.232Z,94967.00
2023-05-02T07:14:20.222Z,94965.00
2023-05-02T07:15:20.266Z,94963.00
2023-05-02T07:16:20.643Z,94965.00
2023-05-02T07:17:20.371Z,94965.00
2023-05-02T07:18:20.325Z,94963.00
2023-05-02T07:19:20.341Z,94963.00
2023-05-02T07:20:20.299Z,94963.00
2023-05-02T07:21:20.335Z,94965.00
2023-05-02T07:22:20.287Z,94963.00
2023-05-02T07:23:20.665Z,94963.00
2023-05-02T07:24:20.365Z,94963.00
2023-05-02T07:25:20.672Z,94961.00
2023-05-02T07:26:20.328Z,94963.00
2023-05-02T07:27:20.337Z,94963.00
2023-05-02T07:28:20.666Z,94961.00
2023-05-02T07:29:20.367Z,94969.00
2023-05-02T07:30:20.713Z,94967.00
2023-05-02T07:31:20.426Z,94969.00
2023-05-02T07:32:20.608Z,94969.00
2023-05-02T07:33:20.601Z,94969.00
2023-05-02T07:34:20.567Z,94967.00
2023-05-02T07:35:20.616Z,94969.00
2023-05-02T07:36:20.653Z,94967.00
2023-05-02T07:37:20.700Z,94967.00
2023-05-02T07:38:20.767Z,94965.00
2023-05-02T07:39:20.836Z,94971.00
2023-05-02T07:40:20.921Z,94969.00
2023-05-02T07:41:20.956Z,94971.00
2023-05-02T07:42:21.000Z,94971.00
2023-05-02T07:43:21.009Z,94971.00
2023-05-02T07:44:21.066Z,94971.00
2023-05-02T07:45:21.073Z,94969.00
2023-05-02T07:46:21.142Z,94973.00
2023-05-02T07:47:21.114Z,94973.00
2023-05-02T07:48:21.219Z,94973.00
2023-05-02T07:49:21.212Z,94975.00
2023-05-02T07:50:21.243Z,94975.00
2023-05-02T07:51:21.279Z,94977.00
2023-05-02T07:52:21.320Z,94979.00
2023-05-02T07:53:21.352Z,94981.00
2023-05-02T07:54:21.388Z,94983.00
2023-05-02T07:55:21.464Z,94985.00
2023-05-02T07:56:21.471Z,94985.00
2023-05-02T07:57:21.486Z,94983.00
2023-05-02T07:58:21.709Z,94987.00
2023-05-02T07:59:21.596Z,94985.00
2023-05-02T08:00:21.638Z,94985.00
2023-05-02T08:01:21.655Z,94987.00
2023-05-02T08:02:21.916Z,94989.00
2023-05-02T08:03:22.340Z,94991.00
2023-05-02T08:04:21.854Z,94993.00
2023-05-02T08:05:21.788Z,94991.00
2023-05-02T08:06:21.881Z,94995.00
2023-05-02T08:07:21.832Z,94995.00
2023-05-02T08:08:21.881Z,94995.00
2023-05-02T08:09:21.849Z,94998.00
2023-05-02T08:10:22.209Z,95000.00
2023-05-02T08:11:22.586Z,94998.00
2023-05-02T08:12:21.917Z,95002.00
2023-05-02T08:13:21.923Z,94998.00
2023-05-02T08:14:21.915Z,94998.00
2023-05-02T08:15:21.923Z,95002.00
2023-05-02T08:16:21.990Z,95002.00
2023-05-02T08:17:22.029Z,95004.00
2023-05-02T08:18:23.686Z,95006.00
2023-05-02T08:19:22.143Z,95006.00
2023-05-02T08:20:22.082Z,95004.00
2023-05-02T08:21:21.993Z,95002.00
2023-05-02T08:22:22.013Z,95006.00
2023-05-02T08:23:22.065Z,95008.00
2023-05-02T08:24:22.047Z,95004.00
2023-05-02T08:25:22.068Z,95004.00
2023-05-02T08:26:22.083Z,95004.00
2023-05-02T08:27:22.249Z,95002.00
2023-05-02T08:28:22.094Z,95002.00
2023-05-02T08:29:22.113Z,95000.00
2023-05-02T08:30:22.146Z,95004.00
2023-05-02T08:31:22.184Z,95004.00
2023-05-02T08:32:22.163Z,95004.00
2023-05-02T08:33:22.285Z,95002.00
2023-05-02T08:34:22.167Z,95000.00
2023-05-02T08:35:22.180Z,95002.00
2023-05-02T08:36:22.198Z,95002.00
2023-05-02T08:37:22.202Z,95002.00
2023-05-02T08:38:22.713Z,95004.00
2023-05-02T08:39:22.297Z,95004.00
2023-05-02T08:40:33.941Z,95004.00
2023-05-02T08:41:23.269Z,95006.00
2023-05-02T08:42:22.251Z,95006.00
2023-05-02T08:43:22.268Z,95004.00
2023-05-02T08:44:22.237Z,95010.00
2023-05-02T08:45:22.244Z,95008.00
2023-05-02T08:46:22.256Z,95010.00
2023-05-02T08:47:22.345Z,95010.00
2023-05-02T08:48:22.694Z,95008.00
2023-05-02T08:49:22.194Z,95008.00
2023-05-02T08:50:22.255Z,95008.00
2023-05-02T08:51:22.201Z,95008.00
2023-05-02T08:52:22.208Z,95012.00
2023-05-02T08:53:22.185Z,95012.00
2023-05-02T08:54:22.166Z,95010.00
2023-05-02T08:55:22.172Z,95010.00
2023-05-02T08:56:22.167Z,95010.00
2023-05-02T08:57:22.173Z,95010.00
2023-05-02T08:58:22.167Z,95010.00
2023-05-02T08:59:22.216Z,95012.00
2023-05-02T09:00:22.330Z,95012.00
2023-05-02T09:01:22.473Z,95012.00
2023-05-02T09:02:22.427Z,95010.00
2023-05-02T09:03:23.764Z,95010.00
2023-05-02T09:04:22.513Z,95014.00
2023-05-02T09:05:22.497Z,95014.00
2023-05-02T09:06:22.617Z,95014.00
2023-05-02T09:07:22.641Z,95016.00
2023-05-02T09:08:22.686Z,95014.00
2023-05-02T09:09:22.749Z,95014.00
2023-05-02T09:10:22.819Z,95018.00
2023-05-02T09:11:22.905Z,95016.00
2023-05-02T09:12:22.927Z,95014.00
2023-05-02T09:13:22.960Z,95016.00
2023-05-02T09:14:23.014Z,95014.00
2023-05-02T09:15:23.045Z,95016.00
2023-05-02T09:16:23.412Z,95014.00
2023-05-02T09:17:23.165Z,95014.00
2023-05-02T09:18:23.248Z,95014.00
2023-05-02T09:19:23.227Z,95014.00
2023-05-02T09:20:23.257Z,95016.00
2023-05-02T09:21:23.260Z,95014.00
2023-05-02T09:22:23.293Z,95016.00
2023-05-02T09:23:23.717Z,95016.00
2023-05-02T09:24:23.310Z,95018.00
2023-05-02T09:25:23.266Z,95010.00
2023-05-02T09:26:23.325Z,95012.00
2023-05-02T09:27:23.337Z,95010.00
2023-05-02T09:28:23.756Z,95014.00
2023-05-02T09:29:23.341Z,95012.00
2023-05-02T09:30:23.752Z,95014.00
2023-05-02T09:31:43.564Z,95010.00
2023-05-02T09:32:24.428Z,95010.00
2023-05-02T09:33:23.708Z,95012.00
2023-05-02T09:34:23.348Z,95010.00
2023-05-02T09:35:23.376Z,95014.00
2023-05-02T09:36:23.365Z,95012.00
2023-05-02T09:37:23.341Z,95012.00
2023-05-02T09:38:23.377Z,95016.00
2023-05-02T09:39:25.573Z,95016.00
2023-05-02T09:40:23.344Z,95016.00
2023-05-02T09:41:23.457Z,95018.00
2023-05-02T09:42:23.324Z,95012.00
2023-05-02T09:43:23.300Z,95016.00
2023-05-02T09:44:23.290Z,95012.00
2023-05-02T09:45:23.298Z,95016.00
2023-05-02T09:46:23.365Z,95014.00
2023-05-02T09:47:23.286Z,95014.00
2023-05-02T09:48:23.262Z,95012.00
2023-05-02T09:49:24.387Z,95012.00
2023-05-02T09:50:24.214Z,95016.00
2023-05-02T09:51:23.240Z,95016.00
2023-05-02T09:52:23.254Z,95014.00
2023-05-02T09:53:23.221Z,95014.00
2023-05-02T09:54:23.207Z,95012.00
2023-05-02T09:55:23.251Z,95012.00
2023-05-02T09:56:23.951Z,95010.00
2023-05-02T09:57:23.319Z,95012.00
2023-05-02T09:58:23.258Z,95010.00
2023-05-02T09:59:23.187Z,95010.00
2023-05-02T10:00:23.194Z,95010.00
2023-05-02T10:01:23.198Z,95012.00
2023-05-02T10:02:23.175Z,95012.00
2023-05-02T10:03:23.166Z,95014.00
2023-05-02T10:04:23.200Z,95012.00
2023-05-02T10:05:23.175Z,95012.00
2023-05-02T10:06:23.248Z,95010.00
2023-05-02T10:07:23.196Z,95014.00
2023-05-02T10:08:23.213Z,95010.00
2023-05-02T10:09:23.137Z,95012.00
2023-05-02T10:10:23.179Z,95010.00
2023-05-02T10:11:23.231Z,95008.00
2023-05-02T10:12:23.199Z,95012.00
2023-05-02T10:13:23.233Z,95010.00
2023-05-02T10:14:23.311Z,95012.00
2023-05-02T10:15:23.367Z,95010.00
2023-05-02T10:16:23.491Z,95010.00
2023-05-02T10:17:23.459Z,95010.00
2023-05-02T10:18:23.510Z,95010.00
2023-05-02T10:19:23.553Z,95008.00
2023-05-02T10:20:23.609Z,95008.00
2023-05-02T10:21:23.662Z,95010.00
2023-05-02T10:22:23.717Z,95008.00
2023-05-02T10:23:24.308Z,95008.00
2023-05-02T10:24:23.909Z,95010.00
2023-05-02T10:25:23.927Z,95006.00
2023-05-02T10:26:24.235Z,95006.00
2023-05-02T10:27:24.731Z,95008.00
2023-05-02T10:28:24.263Z,95006.00
2023-05-02T10:29:24.106Z,95004.00
2023-05-02T10:30:24.175Z,95004.00
2023-05-02T10:31:24.251Z,95002.00
2023-05-02T10:32:24.297Z,95002.00
2023-05-02T10:33:24.742Z,95000.00
2023-05-02T10:34:24.395Z,95000.00
2023-05-02T10:35:24.461Z,95000.00
2023-05-02T10:36:24.737Z,95000.00
2023-05-02T10:37:24.551Z,95000.00
2023-05-02T10:38:24.930Z,95000.00
2023-05-02T10:39:24.652Z,94998.00
2023-05-02T10:40:24.729Z,95000.00
2023-05-02T10:41:24.760Z,95000.00
2023-05-02T10:42:24.809Z,95000.00
2023-05-02T10:43:24.841Z,94996.00
2023-05-02T10:44:25.856Z,95002.00
2023-05-02T10:45:24.952Z,94995.00
2023-05-02T10:46:25.010Z,94998.00
2023-05-02T10:47:25.262Z,94996.00
2023-05-02T10:48:25.145Z,94996.00
2023-05-02T10:49:25.178Z,95000.00
2023-05-02T10:50:26.049Z,94996.00
2023-05-02T10:51:25.299Z,94993.00
2023-05-02T10:52:25.354Z,94996.00
2023-05-02T10:53:25.399Z,94995.00
2023-05-02T10:54:25.463Z,94993.00
2023-05-02T10:55:25.526Z,94991.00
2023-05-02T10:56:27.746Z,94993.00
2023-05-02T10:57:25.591Z,94993.00
2023-05-02T10:58:25.589Z,94991.00
2023-05-02T10:59:25.557Z,94987.00
2023-05-02T11:00:25.545Z,94991.00
2023-05-02T11:01:25.913Z,94989.00
2023-05-02T11:02:25.611Z,94991.00
2023-05-02T11:03:25.553Z,94987.00
2023-05-02T11:04:25.513Z,94981.00
2023-05-02T11:05:25.532Z,94983.00
2023-05-02T11:06:25.514Z,94983.00
2023-05-02T11:07:25.520Z,94983.00
2023-05-02T11:08:25.492Z,94981.00
2023-05-02T11:09:25.501Z,94979.00
2023-05-02T11:10:25.482Z,94981.00
2023-05-02T11:11:25.484Z,94979.00
2023-05-02T11:12:25.475Z,94983.00
2023-05-02T11:13:25.484Z,94979.00
2023-05-02T11:14:25.491Z,94981.00
2023-05-02T11:15:25.457Z,94981.00
2023-05-02T11:16:25.857Z,94979.00
2023-05-02T11:17:25.486Z,94979.00
2023-05-02T11:18:25.496Z,94981.00
2023-05-02T11:19:25.448Z,94981.00
2023-05-02T11:20:25.460Z,94981.00
2023-05-02T11:21:25.417Z,94979.00
2023-05-02T11:22:25.472Z,94977.00
2023-05-02T11:23:25.419Z,94981.00
2023-05-02T11:24:25.410Z,94977.00
2023-05-02T11:25:25.432Z,94975.00
2023-05-02T11:26:25.407Z,94979.00
2023-05-02T11:27:25.411Z,94975.00
2023-05-02T11:28:25.369Z,94975.00
2023-05-02T11:29:25.368Z,94973.00
2023-05-02T11:30:25.378Z,94975.00
2023-05-02T11:31:25.442Z,94973.00
2023-05-02T11:32:25.455Z,94975.00
2023-05-02T11:33:25.362Z,94973.00
2023-05-02T11:34:25.341Z,94973.00
2023-05-02T11:35:25.348Z,94975.00
2023-05-02T11:36:25.331Z,94975.00
2023-05-02T11:37:25.314Z,94975.00
2023-05-02T11:38:25.327Z,94975.00
2023-05-02T11:39:25.313Z,94971.00
2023-05-02T11:40:25.302Z,94971.00
2023-05-02T11:41:25.318Z,94967.00
2023-05-02T11:42:25.282Z,94969.00
2023-05-02T11:43:25.274Z,94967.00
2023-05-02T11:44:25.255Z,94967.00